createdAt,value
2018-04-29T00:02:04.872Z,50.60
2018-04-29T00:04:33.217Z,50.60
2018-04-29T00:07:01.535Z,52.90
2018-04-29T00:09:29.841Z,52.70
2018-04-29T00:11:58.921Z,51.80
2018-04-29T00:14:27.991Z,52.30
2018-04-29T00:16:56.370Z,52.20
2018-04-29T00:19:24.690Z,51.10
2018-04-29T00:21:53.003Z,51.00
2018-04-29T00:24:21.246Z,51.20
2018-04-29T00:26:50.302Z,50.90
2018-04-29T00:29:19.402Z,50.80
2018-04-29T00:31:47.695Z,52.30
2018-04-29T00:34:15.935Z,52.10
2018-04-29T00:36:44.222Z,51.60
2018-04-29T00:39:12.473Z,51.10
2018-04-29T00:41:40.768Z,51.00
2018-04-29T00:44:09.063Z,50.70
2018-04-29T00:46:37.300Z,50.50
2018-04-29T00:49:05.551Z,50.50
2018-04-29T00:51:46.599Z,50.70
2018-04-29T00:54:14.847Z,50.70
2018-04-29T00:56:43.131Z,50.20
2018-04-29T00:59:11.415Z,50.90
2018-04-29T01:01:39.651Z,50.60
2018-04-29T01:04:07.945Z,51.20
2018-04-29T01:06:36.187Z,51.40
2018-04-29T01:09:06.016Z,50.90
2018-04-29T01:11:34.267Z,50.90
2018-04-29T01:14:03.288Z,51.10
2018-04-29T01:16:31.531Z,51.10
2018-04-29T01:18:59.779Z,51.20
2018-04-29T01:21:28.032Z,50.20
2018-04-29T01:23:56.278Z,51.20
2018-04-29T01:26:25.292Z,51.30
2018-04-29T01:28:53.537Z,51.30
2018-04-29T01:31:22.599Z,51.10
2018-04-29T01:33:50.888Z,51.10
2018-04-29T01:36:19.131Z,51.40
2018-04-29T01:38:47.420Z,50.60
2018-04-29T01:41:15.724Z,51.90
2018-04-29T01:43:44.002Z,51.50
2018-04-29T01:46:12.261Z,52.70
2018-04-29T01:48:40.547Z,53.20
2018-04-29T01:51:08.830Z,51.70
2018-04-29T01:53:37.132Z,51.60
2018-04-29T01:56:06.132Z,51.30
2018-04-29T01:58:35.192Z,52.90
2018-04-29T02:01:03.469Z,52.90
2018-04-29T02:03:31.760Z,52.00
2018-04-29T02:06:00.035Z,52.50
2018-04-29T02:08:28.286Z,52.10
2018-04-29T02:10:57.265Z,51.80
2018-04-29T02:13:25.565Z,52.20
2018-04-29T02:15:53.805Z,52.40
2018-04-29T02:18:22.060Z,52.80
2018-04-29T02:20:51.118Z,52.80
2018-04-29T02:23:19.417Z,52.70
2018-04-29T02:25:48.418Z,53.20
2018-04-29T02:28:17.484Z,52.80
2018-04-29T02:30:45.815Z,52.80
2018-04-29T02:33:14.097Z,52.90
2018-04-29T02:35:42.347Z,54.30
2018-04-29T02:38:11.393Z,52.80
2018-04-29T02:40:39.640Z,52.70
2018-04-29T02:43:07.884Z,52.70
2018-04-29T02:45:36.175Z,52.80
2018-04-29T02:48:05.178Z,52.90
2018-04-29T02:50:34.221Z,54.10
2018-04-29T02:53:02.518Z,54.10
2018-04-29T02:55:30.763Z,53.50
2018-04-29T02:57:59.020Z,54.60
2018-04-29T03:00:27.320Z,56.40
2018-04-29T03:02:55.610Z,55.70
2018-04-29T03:05:23.852Z,55.50
2018-04-29T03:07:52.151Z,54.80
2018-04-29T03:10:20.395Z,54.20
2018-04-29T03:12:48.678Z,54.70
2018-04-29T03:15:16.966Z,54.40
2018-04-29T03:17:45.212Z,55.20
2018-04-29T03:20:14.266Z,54.90
2018-04-29T03:22:42.572Z,55.00
2018-04-29T03:25:10.803Z,56.00
2018-04-29T03:27:39.114Z,55.20
2018-04-29T03:30:07.351Z,57.30
2018-04-29T03:32:35.611Z,57.80
2018-04-29T03:35:03.911Z,57.90
2018-04-29T03:37:32.164Z,57.60
2018-04-29T03:40:00.413Z,58.60
2018-04-29T03:42:29.437Z,59.20
2018-04-29T03:44:57.738Z,59.10
2018-04-29T03:47:25.984Z,59.90
2018-04-29T03:49:54.274Z,59.40
2018-04-29T03:52:22.515Z,60.10
2018-04-29T03:54:51.537Z,60.10
2018-04-29T03:57:31.705Z,60.10
2018-04-29T04:00:11.999Z,59.70
2018-04-29T04:02:52.228Z,58.90
2018-04-29T04:05:20.517Z,59.90
2018-04-29T04:07:48.794Z,58.60
2018-04-29T04:10:17.040Z,58.50
2018-04-29T04:12:45.297Z,59.10
2018-04-29T04:15:14.325Z,58.80
2018-04-29T04:17:42.568Z,58.80
2018-04-29T04:20:11.630Z,56.80
2018-04-29T04:22:39.909Z,56.70
2018-04-29T04:25:08.190Z,57.10
2018-04-29T04:27:36.440Z,58.80
2018-04-29T04:30:04.704Z,58.50
2018-04-29T04:32:32.980Z,58.10
2018-04-29T04:35:01.276Z,59.10
2018-04-29T04:37:29.558Z,58.50
2018-04-29T04:39:58.562Z,60.10
2018-04-29T04:42:26.862Z,59.70
2018-04-29T04:44:55.139Z,62.30
2018-04-29T04:47:23.405Z,61.50
2018-04-29T04:49:51.647Z,59.90
2018-04-29T04:52:19.910Z,60.40
2018-04-29T04:54:48.194Z,60.10
2018-04-29T04:57:16.445Z,63.00
2018-04-29T04:59:44.694Z,58.70
2018-04-29T05:02:12.986Z,61.80
2018-04-29T05:04:42.035Z,61.60
2018-04-29T05:07:10.408Z,61.50
2018-04-29T05:09:38.702Z,62.90
2018-04-29T05:12:06.949Z,64.90
2018-04-29T05:14:35.200Z,64.10
2018-04-29T05:17:03.460Z,62.00
2018-04-29T05:19:32.468Z,59.70
2018-04-29T05:22:01.487Z,58.60
2018-04-29T05:24:29.770Z,59.20
2018-04-29T05:26:58.024Z,61.50
2018-04-29T05:29:26.284Z,60.90
2018-04-29T05:31:55.343Z,61.00
2018-04-29T05:34:23.605Z,60.90
2018-04-29T05:36:51.888Z,61.60
2018-04-29T05:39:20.180Z,63.10
2018-04-29T05:41:48.463Z,59.80
2018-04-29T05:44:16.751Z,60.30
2018-04-29T05:46:44.990Z,60.90
2018-04-29T05:49:13.293Z,60.90
2018-04-29T05:51:41.524Z,60.10
2018-04-29T05:54:09.828Z,59.80
2018-04-29T05:56:38.059Z,59.20
2018-04-29T05:59:06.326Z,60.00
2018-04-29T06:01:35.336Z,58.40
2018-04-29T06:04:03.581Z,58.40
2018-04-29T06:06:32.626Z,58.00
2018-04-29T06:09:00.852Z,57.70
2018-04-29T06:11:29.870Z,57.70
2018-04-29T06:13:58.139Z,57.70
2018-04-29T06:16:26.409Z,56.90
2018-04-29T06:18:55.420Z,57.00
2018-04-29T06:21:23.716Z,57.00
2018-04-29T06:23:51.959Z,58.10
2018-04-29T06:26:20.979Z,57.10
2018-04-29T06:28:49.229Z,57.10
2018-04-29T06:31:18.284Z,57.40
2018-04-29T06:33:46.527Z,57.40
2018-04-29T06:36:14.789Z,57.80
2018-04-29T06:38:43.065Z,57.10
2018-04-29T06:41:11.291Z,56.30
2018-04-29T06:43:39.595Z,56.30
2018-04-29T06:46:09.375Z,56.20
2018-04-29T06:48:37.631Z,56.20
2018-04-29T06:51:05.880Z,56.80
2018-04-29T06:53:35.029Z,56.10
2018-04-29T06:56:03.256Z,56.10
2018-04-29T06:58:32.320Z,56.30
2018-04-29T07:01:00.595Z,56.20
2018-04-29T07:03:28.857Z,55.80
2018-04-29T07:05:57.147Z,56.30
2018-04-29T07:08:25.439Z,57.30
2018-04-29T07:10:54.495Z,56.00
2018-04-29T07:13:22.725Z,56.10
2018-04-29T07:15:51.818Z,56.10
2018-04-29T07:18:20.123Z,56.10
2018-04-29T07:20:48.401Z,55.40
2018-04-29T07:23:16.646Z,55.50
2018-04-29T07:25:45.711Z,55.00
2018-04-29T07:28:14.016Z,55.00
2018-04-29T07:30:42.261Z,55.20
2018-04-29T07:33:10.561Z,55.10
2018-04-29T07:35:38.808Z,54.70
2018-04-29T07:38:07.053Z,54.40
2018-04-29T07:40:35.311Z,54.10
2018-04-29T07:43:04.368Z,54.60
2018-04-29T07:45:32.678Z,54.60
2018-04-29T07:48:01.740Z,54.50
2018-04-29T07:50:30.018Z,54.50
2018-04-29T07:52:58.272Z,54.20
2018-04-29T07:55:26.579Z,54.00
2018-04-29T07:57:54.824Z,53.70
2018-04-29T08:00:23.074Z,54.00
2018-04-29T08:02:51.379Z,53.70
2018-04-29T08:05:19.632Z,53.10
2018-04-29T08:07:47.896Z,52.80
2018-04-29T08:10:16.918Z,52.00
2018-04-29T08:12:45.189Z,52.00
2018-04-29T08:15:13.439Z,52.10
2018-04-29T08:17:42.457Z,51.20
2018-04-29T08:20:11.339Z,51.20
2018-04-29T08:22:39.624Z,51.70
2018-04-29T08:25:07.846Z,50.30
2018-04-29T08:27:36.088Z,50.00
2018-04-29T08:30:04.487Z,50.00
2018-04-29T08:32:32.981Z,50.40
2018-04-29T08:35:01.264Z,50.90
2018-04-29T08:37:29.512Z,50.90
2018-04-29T08:39:57.772Z,51.20
2018-04-29T08:42:26.085Z,52.00
2018-04-29T08:44:54.362Z,51.20
2018-04-29T08:47:22.675Z,51.00
2018-04-29T08:49:51.777Z,51.10
2018-04-29T08:52:20.927Z,50.80
2018-04-29T08:54:49.191Z,50.20
2018-04-29T08:57:17.491Z,49.10
2018-04-29T08:59:45.755Z,49.80
2018-04-29T09:02:14.083Z,50.30
2018-04-29T09:04:43.144Z,48.90
2018-04-29T09:07:11.419Z,48.90
2018-04-29T09:09:39.705Z,47.70
2018-04-29T09:12:07.968Z,48.70
2018-04-29T09:14:36.219Z,49.20
2018-04-29T09:17:04.546Z,49.70
2018-04-29T09:19:32.802Z,49.00
2018-04-29T09:22:01.477Z,49.00
2018-04-29T09:24:29.805Z,49.00
2018-04-29T09:26:58.860Z,49.70
2018-04-29T09:29:27.148Z,49.50
2018-04-29T09:31:55.407Z,49.80
2018-04-29T09:34:23.672Z,49.60
2018-04-29T09:36:51.974Z,49.70
2018-04-29T09:39:20.235Z,49.20
2018-04-29T09:41:48.496Z,49.60
2018-04-29T09:44:16.820Z,49.30
2018-04-29T09:46:45.070Z,49.00
2018-04-29T09:49:13.380Z,49.30
2018-04-29T09:51:41.623Z,48.70
2018-04-29T09:54:09.882Z,48.10
2018-04-29T09:56:38.185Z,48.30
2018-04-29T09:59:06.472Z,48.80
2018-04-29T10:01:35.537Z,48.70
2018-04-29T10:04:03.805Z,49.10
2018-04-29T10:06:32.072Z,48.70
2018-04-29T10:09:00.312Z,49.00
2018-04-29T10:11:29.339Z,49.00
2018-04-29T10:13:58.289Z,49.00
2018-04-29T10:16:26.637Z,49.40
2018-04-29T10:18:54.954Z,49.30
2018-04-29T10:21:23.296Z,49.30
2018-04-29T10:23:51.583Z,49.90
2018-04-29T10:26:19.880Z,49.10
2018-04-29T10:28:48.122Z,48.70
2018-04-29T10:31:16.393Z,49.10
2018-04-29T10:33:44.678Z,49.00
2018-04-29T10:36:12.942Z,48.80
2018-04-29T10:41:08.920Z,49.50
2018-04-29T10:43:37.186Z,48.80
2018-04-29T10:46:06.224Z,48.30
2018-04-29T10:48:34.546Z,48.30
2018-04-29T10:51:03.560Z,48.40
2018-04-29T10:53:32.622Z,48.00
2018-04-29T10:56:00.940Z,48.00
2018-04-29T10:58:29.203Z,48.10
2018-04-29T11:00:58.216Z,46.80
2018-04-29T11:03:26.487Z,46.70
2018-04-29T11:05:54.791Z,47.70
2018-04-29T11:08:23.031Z,46.60
2018-04-29T11:10:51.748Z,47.00
2018-04-29T11:13:19.999Z,47.80
2018-04-29T11:15:48.268Z,48.30
2018-04-29T11:18:17.280Z,45.70
2018-04-29T11:20:45.526Z,45.70
2018-04-29T11:23:14.548Z,45.60
2018-04-29T11:25:42.827Z,45.60
2018-04-29T11:28:11.145Z,44.10
2018-04-29T11:30:39.421Z,45.00
2018-04-29T11:33:07.668Z,44.60
2018-04-29T11:35:35.918Z,45.30
2018-04-29T11:38:04.244Z,45.80
2018-04-29T11:40:32.570Z,46.20
2018-04-29T11:43:00.784Z,44.90
2018-04-29T11:45:29.044Z,45.30
2018-04-29T11:47:57.369Z,45.40
2018-04-29T11:50:25.680Z,45.10
2018-04-29T11:52:54.700Z,44.60
2018-04-29T11:55:23.015Z,44.60
2018-04-29T11:57:51.253Z,45.30
2018-04-29T12:00:19.570Z,43.10
2018-04-29T12:02:47.844Z,44.40
2018-04-29T12:05:16.118Z,42.50
2018-04-29T12:07:44.416Z,42.80
2018-04-29T12:10:12.707Z,44.20
2018-04-29T12:12:41.777Z,43.30
2018-04-29T12:15:10.047Z,43.30
2018-04-29T12:17:38.365Z,43.50
2018-04-29T12:20:07.385Z,42.00
2018-04-29T12:22:35.668Z,42.00
2018-04-29T12:25:03.962Z,41.80
2018-04-29T12:27:32.212Z,42.10
2018-04-29T12:30:00.475Z,40.80
2018-04-29T12:32:28.720Z,41.40
2018-04-29T12:34:57.008Z,39.10
2018-04-29T12:37:25.258Z,40.90
2018-04-29T12:39:53.546Z,39.70
2018-04-29T12:42:22.175Z,40.40
2018-04-29T12:44:50.506Z,38.40
2018-04-29T12:47:18.767Z,38.60
2018-04-29T12:49:47.005Z,38.70
2018-04-29T12:52:15.348Z,37.70
2018-04-29T12:54:43.629Z,38.80
2018-04-29T12:57:11.914Z,38.80
2018-04-29T12:59:40.220Z,40.30
2018-04-29T13:02:08.487Z,40.90
2018-04-29T13:04:37.580Z,35.80
2018-04-29T13:07:06.643Z,36.30
2018-04-29T13:09:34.900Z,36.10
2018-04-29T13:12:03.132Z,35.30
2018-04-29T13:14:31.441Z,36.50
2018-04-29T13:16:59.686Z,36.20
2018-04-29T13:19:27.986Z,35.20
2018-04-29T13:21:56.255Z,35.70
2018-04-29T13:24:24.519Z,36.90
2018-04-29T13:26:53.547Z,36.80
2018-04-29T13:29:21.831Z,36.80
2018-04-29T13:31:50.148Z,33.30
2018-04-29T13:34:18.385Z,34.60
2018-04-29T13:36:46.691Z,34.10
2018-04-29T13:39:14.944Z,34.70
2018-04-29T13:41:43.228Z,33.50
2018-04-29T13:44:11.468Z,34.60
2018-04-29T13:46:39.807Z,32.70
2018-04-29T13:49:08.087Z,34.20
2018-04-29T13:51:36.399Z,36.00
2018-04-29T13:54:04.653Z,34.70
2018-04-29T13:56:33.786Z,34.80
2018-04-29T13:59:02.769Z,35.60
2018-04-29T14:01:31.044Z,35.70
2018-04-29T14:03:59.319Z,36.70
2018-04-29T14:06:27.622Z,33.40
2018-04-29T14:08:55.967Z,32.60
2018-04-29T14:11:25.027Z,33.50
2018-04-29T14:13:53.371Z,33.50
2018-04-29T14:16:22.029Z,35.50
2018-04-29T14:18:51.061Z,31.40
2018-04-29T14:21:19.315Z,31.40
2018-04-29T14:23:47.592Z,30.90
2018-04-29T14:26:15.880Z,33.80
2018-04-29T14:28:44.132Z,33.70
2018-04-29T14:31:12.441Z,32.00
2018-04-29T14:33:40.693Z,32.40
2018-04-29T14:36:08.946Z,32.80
2018-04-29T14:38:38.003Z,32.60
2018-04-29T14:41:07.091Z,29.40
2018-04-29T14:43:35.383Z,29.40
2018-04-29T14:46:03.699Z,31.60
2018-04-29T14:48:32.763Z,29.30
2018-04-29T14:51:01.884Z,29.30
2018-04-29T14:53:30.899Z,27.70
2018-04-29T14:55:59.195Z,27.70
2018-04-29T14:58:28.237Z,28.20
2018-04-29T15:00:56.520Z,28.20
2018-04-29T15:03:24.784Z,28.70
2018-04-29T15:05:53.037Z,29.80
2018-04-29T15:08:21.309Z,28.30
2018-04-29T15:10:49.608Z,29.60
2018-04-29T15:13:18.664Z,30.30
2018-04-29T15:15:46.957Z,29.70
2018-04-29T15:18:27.170Z,28.60
2018-04-29T15:20:55.476Z,28.90
2018-04-29T15:23:23.727Z,30.00
2018-04-29T15:25:52.058Z,28.50
2018-04-29T15:28:20.561Z,30.70
2018-04-29T15:30:48.838Z,29.40
2018-04-29T15:33:17.072Z,28.10
2018-04-29T15:35:45.344Z,28.10
2018-04-29T15:38:13.646Z,29.30
2018-04-29T15:40:41.963Z,30.00
2018-04-29T15:43:10.262Z,30.00
2018-04-29T15:45:39.323Z,30.10
2018-04-29T15:48:07.596Z,30.00
2018-04-29T15:50:35.844Z,31.20
2018-04-29T15:53:04.262Z,30.00
2018-04-29T15:55:32.555Z,30.40
2018-04-29T15:58:00.851Z,29.90
2018-04-29T16:00:29.888Z,31.00
2018-04-29T16:02:58.193Z,31.00
2018-04-29T16:05:26.473Z,30.80
2018-04-29T16:07:54.720Z,30.30
2018-04-29T16:10:23.025Z,30.70
2018-04-29T16:12:51.268Z,31.50
2018-04-29T16:15:19.552Z,31.90
2018-04-29T16:17:47.784Z,31.70
2018-04-29T16:20:16.061Z,31.70
2018-04-29T16:22:44.358Z,32.00
2018-04-29T16:25:12.634Z,31.50
2018-04-29T16:27:40.896Z,31.10
2018-04-29T16:30:09.899Z,31.70
2018-04-29T16:32:38.170Z,31.60
2018-04-29T16:35:07.165Z,32.40
2018-04-29T16:37:35.433Z,32.30
2018-04-29T16:40:03.684Z,32.00
2018-04-29T16:42:32.000Z,32.50
2018-04-29T16:45:00.280Z,30.80
2018-04-29T16:47:28.532Z,31.50
2018-04-29T16:49:57.612Z,32.00
2018-04-29T16:52:26.622Z,32.00
2018-04-29T16:54:54.880Z,30.20
2018-04-29T16:57:23.128Z,30.90
2018-04-29T16:59:51.401Z,31.70
2018-04-29T17:02:19.652Z,31.90
2018-04-29T17:04:47.932Z,32.30
2018-04-29T17:07:16.176Z,30.70
2018-04-29T17:09:44.482Z,31.10
2018-04-29T17:12:12.766Z,31.80
2018-04-29T17:14:41.027Z,31.70
2018-04-29T17:17:09.393Z,31.20
2018-04-29T17:19:37.685Z,31.70
2018-04-29T17:22:05.958Z,30.90
2018-04-29T17:24:35.031Z,30.70
2018-04-29T17:27:03.302Z,30.80
2018-04-29T17:29:31.599Z,31.30
2018-04-29T17:31:59.833Z,31.70
2018-04-29T17:34:28.123Z,31.60
2018-04-29T17:36:56.412Z,30.50
2018-04-29T17:39:24.660Z,31.20
2018-04-29T17:41:52.911Z,31.60
2018-04-29T17:44:21.183Z,31.20
2018-04-29T17:46:49.472Z,31.60
2018-04-29T17:49:17.734Z,30.90
2018-04-29T17:51:46.827Z,31.50
2018-04-29T17:54:15.969Z,31.90
2018-04-29T17:56:44.298Z,31.90
2018-04-29T17:59:13.308Z,32.70
2018-04-29T18:01:41.637Z,32.80
2018-04-29T18:04:09.914Z,31.80
2018-04-29T18:06:38.223Z,32.40
2018-04-29T18:09:07.236Z,32.70
2018-04-29T18:11:35.525Z,32.70
2018-04-29T18:14:03.843Z,33.20
2018-04-29T18:16:32.115Z,33.40
2018-04-29T18:19:01.300Z,33.50
2018-04-29T18:21:29.524Z,33.70
2018-04-29T18:23:57.829Z,33.70
2018-04-29T18:26:26.078Z,34.40
2018-04-29T18:28:55.093Z,34.10
2018-04-29T18:31:23.362Z,34.10
2018-04-29T18:33:52.367Z,34.30
2018-04-29T18:36:20.668Z,34.30
2018-04-29T18:38:48.985Z,34.50
2018-04-29T18:41:17.233Z,34.70
2018-04-29T18:43:45.520Z,34.80
2018-04-29T18:46:13.795Z,34.80
2018-04-29T18:48:42.194Z,35.20
2018-04-29T18:51:10.678Z,35.20
2018-04-29T18:53:38.691Z,35.20
2018-04-29T18:56:06.951Z,35.30
2018-04-29T18:58:35.212Z,35.60
2018-04-29T19:01:04.313Z,35.70
2018-04-29T19:03:33.371Z,35.70
2018-04-29T19:06:01.663Z,35.70
2018-04-29T19:08:29.948Z,35.80
2018-04-29T19:10:58.228Z,35.90
2018-04-29T19:13:27.326Z,36.40
2018-04-29T19:15:56.427Z,37.00
2018-04-29T19:18:24.676Z,36.50
2018-04-29T19:20:52.987Z,36.80
2018-04-29T19:23:22.009Z,37.10
2018-04-29T19:25:50.362Z,37.10
2018-04-29T19:28:19.377Z,37.30
2018-04-29T19:30:47.649Z,37.10
2018-04-29T19:33:15.902Z,37.50
2018-04-29T19:35:44.992Z,37.10
2018-04-29T19:38:15.902Z,37.10
2018-04-29T19:40:44.238Z,37.40
2018-04-29T19:43:12.489Z,37.80
2018-04-29T19:45:41.599Z,37.40
2018-04-29T19:48:10.662Z,37.70
2018-04-29T19:50:38.974Z,37.70
2018-04-29T19:53:08.020Z,38.40
2018-04-29T19:55:36.327Z,38.30
2018-04-29T19:58:04.611Z,38.10
2018-04-29T20:00:32.935Z,38.70
2018-04-29T20:03:01.199Z,38.10
2018-04-29T20:05:30.328Z,38.00
2018-04-29T20:07:58.612Z,38.60
2018-04-29T20:10:26.914Z,38.60
2018-04-29T20:12:55.242Z,39.00
2018-04-29T20:15:23.707Z,38.10
2018-04-29T20:17:52.016Z,38.40
2018-04-29T20:20:20.290Z,38.40
2018-04-29T20:22:48.577Z,38.20
2018-04-29T20:25:16.920Z,38.60
2018-04-29T20:27:45.198Z,38.50
2018-04-29T20:30:13.486Z,38.20
2018-04-29T20:32:48.667Z,38.20
2018-04-29T20:35:17.076Z,39.10
2018-04-29T20:37:46.139Z,39.70
2018-04-29T20:40:14.459Z,39.00
2018-04-29T20:42:42.759Z,39.10
2018-04-29T20:45:11.010Z,39.20
2018-04-29T20:47:39.297Z,38.40
2018-04-29T20:50:07.591Z,39.00
2018-04-29T20:52:35.879Z,39.10
2018-04-29T20:55:04.134Z,39.50
2018-04-29T20:57:32.440Z,39.30
2018-04-29T21:00:00.774Z,40.20
2018-04-29T21:02:29.070Z,39.10
2018-04-29T21:04:57.361Z,39.20
2018-04-29T21:07:25.608Z,39.60
2018-04-29T21:09:54.651Z,41.20
2018-04-29T21:12:22.903Z,41.20
2018-04-29T21:14:51.196Z,40.30
2018-04-29T21:17:19.528Z,41.30
2018-04-29T21:19:47.719Z,41.60
2018-04-29T21:22:16.097Z,40.30
2018-04-29T21:24:44.353Z,42.00
2018-04-29T21:27:12.637Z,41.00
2018-04-29T21:29:41.644Z,41.60
2018-04-29T21:32:09.954Z,41.60
2018-04-29T21:34:38.183Z,42.20
2018-04-29T21:37:07.269Z,42.40
2018-04-29T21:39:35.593Z,42.30
2018-04-29T21:42:03.850Z,41.30
2018-04-29T21:44:32.178Z,41.70
2018-04-29T21:47:00.476Z,42.00
2018-04-29T21:49:28.759Z,41.40
2018-04-29T21:51:57.635Z,41.40
2018-04-29T21:54:25.900Z,42.20
2018-04-29T21:56:54.226Z,42.40
2018-04-29T21:59:22.481Z,42.40
2018-04-29T22:01:52.428Z,42.50
2018-04-29T22:04:20.772Z,42.30
2018-04-29T22:06:49.738Z,42.60
2018-04-29T22:09:17.992Z,42.60
2018-04-29T22:11:46.240Z,43.30
2018-04-29T22:14:14.590Z,42.40
2018-04-29T22:16:42.917Z,42.10
2018-04-29T22:19:11.173Z,42.70
2018-04-29T22:21:39.443Z,42.70
2018-04-29T22:24:08.547Z,43.00
2018-04-29T22:26:37.587Z,42.60
2018-04-29T22:29:05.832Z,42.60
2018-04-29T22:31:34.089Z,42.80
2018-04-29T22:34:03.151Z,42.70
2018-04-29T22:36:31.447Z,42.70
2018-04-29T22:38:59.693Z,42.70
2018-04-29T22:41:27.997Z,43.00
2018-04-29T22:43:56.291Z,42.20
2018-04-29T22:46:25.707Z,42.60
2018-04-29T22:48:54.709Z,42.80
2018-04-29T22:51:23.038Z,42.80
2018-04-29T22:53:51.314Z,42.60
2018-04-29T22:56:19.579Z,42.70
2018-04-29T22:58:47.861Z,43.00
2018-04-29T23:01:16.883Z,42.40
2018-04-29T23:03:45.915Z,42.50
2018-04-29T23:06:14.160Z,42.50
2018-04-29T23:08:43.223Z,42.40
2018-04-29T23:11:11.480Z,42.40
2018-04-29T23:13:39.771Z,42.50
2018-04-29T23:16:08.017Z,43.00
2018-04-29T23:18:36.296Z,42.10
2018-04-29T23:21:04.599Z,42.30
2018-04-29T23:23:32.886Z,42.30
2018-04-29T23:26:01.127Z,42.30
2018-04-29T23:28:29.426Z,42.90
2018-04-29T23:30:57.699Z,42.50
2018-04-29T23:33:25.995Z,42.50
2018-04-29T23:35:54.421Z,42.30
2018-04-29T23:38:23.456Z,42.30
2018-04-29T23:40:52.344Z,42.20
2018-04-29T23:43:20.595Z,42.10
2018-04-29T23:45:48.839Z,42.10
2018-04-29T23:48:17.093Z,42.00
2018-04-29T23:50:45.391Z,42.00
2018-04-29T23:53:13.681Z,42.10
2018-04-29T23:55:42.691Z,42.10
2018-04-29T23:58:10.927Z,42.10
